Time;durP1;ratioP1;P1;durP2;ratioP2;P2;SDS_P1;SDS_P2;PMS_P1;PMS_P2;Temp;Humidity;BMP_temperature;BMP_pressure;BME280_temperature;BME280_humidity;BME280_pressure;Samples;Min_cycle;Max_cycle;Signal;HPM_P1;HPM_P2
2022/03/09 00:02:19;;;;;;;24.47;7.07;;;;;;;9.86;nan;101924.66;4864516;29;20514;-90
2022/03/09 00:04:51;;;;;;;15.23;5.50;;;;;;;9.88;nan;101928.09;4899712;29;20449;-91
2022/03/09 00:07:27;;;;;;;19.87;5.27;;;;;;;9.71;nan;101910.75;4886014;29;20438;-90
2022/03/09 00:09:59;;;;;;;14.10;5.70;;;;;;;9.74;nan;101923.22;4901979;29;20877;-90
2022/03/09 00:12:29;;;;;;;16.73;6.10;;;;;;;9.67;nan;101912.94;4870990;29;20484;-91
2022/03/09 00:14:58;;;;;;;16.40;5.40;;;;;;;9.64;nan;101912.38;4830920;29;20484;-90
2022/03/09 00:17:29;;;;;;;15.73;5.83;;;;;;;9.70;nan;101926.25;4816583;29;20447;-91
2022/03/09 00:20:01;;;;;;;18.07;5.70;;;;;;;9.67;nan;101918.38;4846762;29;20451;-94
2022/03/09 00:22:33;;;;;;;17.83;5.20;;;;;;;9.68;nan;101914.63;4847212;29;21254;-91
2022/03/09 00:25:02;;;;;;;20.50;6.50;;;;;;;9.65;nan;101917.69;4816123;29;20476;-91
2022/03/09 00:27:36;;;;;;;20.60;6.60;;;;;;;9.64;nan;101917.84;4815956;29;20868;-91
2022/03/09 00:30:08;;;;;;;21.67;6.30;;;;;;;9.60;nan;101906.41;4846005;29;21033;-91
2022/03/09 00:32:42;;;;;;;16.80;5.37;;;;;;;9.53;nan;101905.31;4829472;29;20960;-90
2022/03/09 00:35:22;;;;;;;26.23;5.50;;;;;;;9.52;nan;101897.28;4899201;29;20488;-90
2022/03/09 00:37:52;;;;;;;20.83;6.00;;;;;;;9.53;nan;101913.50;4898172;29;20464;-90
2022/03/09 00:40:22;;;;;;;16.97;5.90;;;;;;;9.42;nan;101889.22;4868421;29;20458;-90
2022/03/09 00:42:50;;;;;;;12.97;4.20;;;;;;;9.45;nan;101899.78;4869256;29;20441;-91
2022/03/09 00:45:19;;;;;;;15.83;4.37;;;;;;;9.41;nan;101887.50;4868880;29;20461;-94
2022/03/09 00:47:47;;;;;;;15.73;3.93;;;;;;;9.38;nan;101889.69;4884233;29;20449;-92
2022/03/09 00:50:17;;;;;;;16.27;4.17;;;;;;;9.27;nan;101882.59;4883528;29;20465;-90
2022/03/09 00:52:48;;;;;;;13.20;3.10;;;;;;;9.28;nan;101889.75;4884104;29;20442;-92
2022/03/09 00:55:16;;;;;;;12.70;4.00;;;;;;;9.26;nan;101887.19;4866746;29;20481;-91
2022/03/09 00:57:44;;;;;;;13.40;3.30;;;;;;;9.20;nan;101886.97;4865088;29;20829;-91
2022/03/09 01:00:14;;;;;;;10.07;4.27;;;;;;;9.19;nan;101885.25;4861584;29;20450;-90
2022/03/09 01:02:43;;;;;;;12.87;3.60;;;;;;;9.08;nan;101856.34;4851730;29;20995;-92
2022/03/09 01:05:14;;;;;;;16.73;3.97;;;;;;;9.10;nan;101850.72;4867920;29;21000;-90
2022/03/09 01:07:43;;;;;;;19.13;3.47;;;;;;;9.14;nan;101860.31;4867854;29;20452;-92
2022/03/09 01:10:14;;;;;;;13.50;4.10;;;;;;;9.16;nan;101869.19;4863348;29;20462;-92
2022/03/09 01:12:45;;;;;;;14.40;4.97;;;;;;;9.16;nan;101863.75;4867566;29;20454;-91
2022/03/09 01:15:15;;;;;;;15.43;4.90;;;;;;;9.18;nan;101872.63;4898241;29;20484;-90
2022/03/09 01:17:46;;;;;;;16.43;4.90;;;;;;;9.07;nan;101860.06;4883609;29;20442;-92
2022/03/09 01:20:19;;;;;;;10.60;4.00;;;;;;;9.07;nan;101859.22;4883104;29;20446;-89
2022/03/09 01:22:49;;;;;;;11.50;4.43;;;;;;;9.00;nan;101854.41;4896394;29;20466;-90
2022/03/09 01:25:17;;;;;;;13.30;4.10;;;;;;;8.84;nan;101843.34;4881370;29;20474;-89
2022/03/09 01:27:50;;;;;;;15.10;5.20;;;;;;;8.76;nan;101836.97;4880098;29;20457;-91
2022/03/09 01:30:18;;;;;;;14.67;4.40;;;;;;;8.81;nan;101840.94;4882629;29;20463;-93
2022/03/09 01:32:49;;;;;;;15.83;4.50;;;;;;;8.81;nan;101838.22;4877625;29;20945;-89
2022/03/09 01:35:18;;;;;;;10.97;4.67;;;;;;;8.77;nan;101820.44;4879570;29;20486;-89
2022/03/09 01:37:50;;;;;;;10.80;3.47;;;;;;;8.73;nan;101815.47;4893882;29;20442;-90
2022/03/09 01:40:18;;;;;;;20.27;5.03;;;;;;;8.76;nan;101817.88;4897934;29;20457;-92
2022/03/09 01:42:47;;;;;;;17.70;4.30;;;;;;;8.77;nan;101804.09;4882718;29;20508;-92
2022/03/09 01:45:15;;;;;;;15.53;4.20;;;;;;;8.78;nan;101794.91;4888808;29;20502;-90
2022/03/09 01:47:44;;;;;;;22.63;5.30;;;;;;;8.76;nan;101796.94;4894647;29;20461;-90
2022/03/09 01:50:12;;;;;;;15.90;5.30;;;;;;;8.76;nan;101806.97;4844467;29;20448;-89
2022/03/09 01:52:43;;;;;;;18.03;4.70;;;;;;;8.65;nan;101792.59;4844304;29;20448;-90
2022/03/09 01:55:11;;;;;;;12.33;4.23;;;;;;;8.77;nan;101808.69;4818625;29;20483;-91
2022/03/09 01:57:43;;;;;;;20.70;4.77;;;;;;;8.75;nan;101808.00;4815908;29;20525;-90
2022/03/09 02:00:12;;;;;;;10.73;4.10;;;;;;;8.72;nan;101808.28;4814838;29;20447;-90
2022/03/09 02:02:40;;;;;;;13.90;4.97;;;;;;;8.68;nan;101804.16;4814237;29;20499;-90
2022/03/09 02:05:09;;;;;;;17.80;5.03;;;;;;;8.61;nan;101803.94;4808311;29;20457;-92
2022/03/09 02:10:25;;;;;;;12.80;3.07;;;;;;;8.55;nan;101808.13;4898036;29;20533;-91
2022/03/09 02:12:55;;;;;;;16.83;3.30;;;;;;;8.36;nan;101793.78;4882570;29;20804;-90
2022/03/09 02:15:23;;;;;;;14.90;3.50;;;;;;;8.25;nan;101776.66;4895597;29;20485;-91
2022/03/09 02:17:52;;;;;;;14.50;3.53;;;;;;;8.23;nan;101781.38;4867398;29;20462;-92
2022/03/09 02:20:27;;;;;;;9.07;2.83;;;;;;;8.26;nan;101783.81;4864684;29;20488;-90
2022/03/09 02:22:58;;;;;;;19.23;3.70;;;;;;;8.29;nan;101778.03;4882781;29;20457;-90
2022/03/09 02:25:29;;;;;;;17.33;3.63;;;;;;;8.35;nan;101781.19;4878913;29;20483;-90
2022/03/09 02:28:00;;;;;;;11.90;3.77;;;;;;;8.40;nan;101778.88;4863382;29;20455;-90
2022/03/09 02:30:30;;;;;;;15.80;5.27;;;;;;;8.40;nan;101785.16;4866680;29;20546;-91
2022/03/09 02:33:01;;;;;;;14.27;4.27;;;;;;;8.30;nan;101768.84;4868633;29;20455;-91
2022/03/09 02:35:29;;;;;;;21.63;5.47;;;;;;;8.39;nan;101788.03;4894216;29;20486;-94
2022/03/09 02:37:57;;;;;;;19.30;3.90;;;;;;;8.37;nan;101795.50;4879118;29;20469;-91
2022/03/09 02:40:27;;;;;;;15.00;4.87;;;;;;;8.35;nan;101794.81;4885118;29;20486;-90
2022/03/09 02:42:55;;;;;;;15.00;4.67;;;;;;;8.37;nan;101804.53;4867187;29;20466;-90
2022/03/09 02:45:23;;;;;;;11.90;4.87;;;;;;;8.19;nan;101788.13;4868932;29;20453;-90
2022/03/09 02:47:52;;;;;;;13.33;4.20;;;;;;;8.33;nan;101805.84;4886504;29;20509;-93
2022/03/09 02:50:22;;;;;;;14.67;3.97;;;;;;;8.28;nan;101809.00;4885237;29;20458;-91
2022/03/09 02:52:52;;;;;;;13.40;3.90;;;;;;;8.13;nan;101777.84;4901561;29;20453;-91
2022/03/09 02:55:25;;;;;;;17.30;4.80;;;;;;;8.27;nan;101807.28;4900717;29;20532;-90
2022/03/09 02:57:54;;;;;;;12.43;4.53;;;;;;;8.26;nan;101782.94;4901281;29;20493;-90
2022/03/09 03:00:23;;;;;;;10.33;3.60;;;;;;;8.25;nan;101787.53;4901338;29;20454;-93
2022/03/09 03:02:55;;;;;;;15.33;4.40;;;;;;;8.22;nan;101782.41;4885659;29;20521;-91
2022/03/09 03:05:25;;;;;;;7.77;3.50;;;;;;;8.08;nan;101763.00;4900991;29;20453;-91
2022/03/09 03:07:54;;;;;;;10.57;3.47;;;;;;;8.13;nan;101777.00;4870546;29;20855;-93
2022/03/09 03:10:22;;;;;;;13.33;3.43;;;;;;;8.12;nan;101773.41;4837167;29;20453;-88
2022/03/09 03:12:50;;;;;;;8.17;3.00;;;;;;;8.08;nan;101766.56;4850180;29;20452;-93
2022/03/09 03:15:18;;;;;;;18.87;3.60;;;;;;;8.04;nan;101751.56;4829168;29;20540;-90
2022/03/09 03:17:46;;;;;;;13.30;3.53;;;;;;;8.08;nan;101763.81;4828900;29;20452;-90
2022/03/09 03:20:16;;;;;;;8.20;2.57;;;;;;;7.97;nan;101756.75;4829221;29;20463;-91
2022/03/09 03:22:47;;;;;;;11.80;3.30;;;;;;;8.01;nan;101768.19;4829412;29;20486;-90
2022/03/09 03:25:16;;;;;;;8.60;2.53;;;;;;;7.95;nan;101769.63;4828246;29;20484;-90
2022/03/09 03:27:52;;;;;;;11.03;2.83;;;;;;;7.84;nan;101772.59;4849916;29;20454;-90
2022/03/09 03:30:20;;;;;;;12.80;3.20;;;;;;;7.79;nan;101776.75;4867399;29;20441;-91
2022/03/09 03:32:50;;;;;;;10.10;3.03;;;;;;;7.59;nan;101746.91;4867893;29;20462;-90
2022/03/09 03:35:18;;;;;;;11.73;3.17;;;;;;;7.73;nan;101758.28;4877195;29;20497;-89
2022/03/09 03:37:47;;;;;;;9.13;2.43;;;;;;;7.81;nan;101750.25;4883588;29;20475;-91
2022/03/09 03:40:23;;;;;;;9.07;2.50;;;;;;;7.86;nan;101758.81;4884669;29;20454;-92
2022/03/09 03:42:55;;;;;;;7.60;2.50;;;;;;;7.91;nan;101760.06;4870105;29;20451;-91
2022/03/09 03:45:26;;;;;;;14.13;3.23;;;;;;;7.87;nan;101750.50;4884544;29;20434;-90
2022/03/09 03:47:57;;;;;;;13.40;3.50;;;;;;;7.81;nan;101744.81;4867113;29;20462;-90
2022/03/09 03:50:28;;;;;;;9.07;3.00;;;;;;;7.87;nan;101755.09;4883433;29;20450;-89
2022/03/09 03:52:58;;;;;;;10.30;3.40;;;;;;;7.79;nan;101750.41;4900057;29;20806;-90
2022/03/09 03:55:26;;;;;;;8.83;2.77;;;;;;;7.76;nan;101758.00;4872343;29;20537;-90
2022/03/09 03:57:55;;;;;;;14.50;2.83;;;;;;;7.67;nan;101745.31;4869004;29;20505;-91
2022/03/09 04:00:25;;;;;;;13.77;3.40;;;;;;;7.71;nan;101749.41;4869674;29;20470;-94
2022/03/09 04:02:54;;;;;;;9.40;2.73;;;;;;;7.67;nan;101748.03;4900036;29;20446;-91
2022/03/09 04:05:22;;;;;;;10.60;2.80;;;;;;;7.64;nan;101743.75;4898607;29;20462;-91
2022/03/09 04:07:50;;;;;;;9.70;3.90;;;;;;;7.70;nan;101748.56;4899862;29;20446;-89
2022/03/09 04:10:19;;;;;;;13.60;2.70;;;;;;;7.66;nan;101746.31;4883854;29;20976;-90
2022/03/09 04:12:47;;;;;;;13.53;2.57;;;;;;;7.62;nan;101752.06;4883970;29;20505;-89
2022/03/09 04:15:16;;;;;;;14.73;3.43;;;;;;;7.63;nan;101764.66;4868827;29;21023;-89
2022/03/09 04:17:46;;;;;;;8.13;2.33;;;;;;;7.56;nan;101740.91;4869164;29;20460;-89
2022/03/09 04:20:15;;;;;;;11.97;2.80;;;;;;;7.59;nan;101746.91;4884075;29;20454;-89
2022/03/09 04:22:43;;;;;;;11.37;2.60;;;;;;;7.67;nan;101753.47;4865772;29;20462;-90
2022/03/09 04:25:11;;;;;;;13.73;2.50;;;;;;;7.65;nan;101755.50;4880059;29;20479;-90
2022/03/09 04:27:40;;;;;;;9.03;2.03;;;;;;;7.61;nan;101755.78;4880312;29;20454;-89
2022/03/09 04:30:09;;;;;;;10.07;2.77;;;;;;;7.54;nan;101743.78;4878389;29;20585;-89
2022/03/09 04:32:37;;;;;;;7.93;2.27;;;;;;;7.55;nan;101748.22;4911960;29;20450;-92
2022/03/09 04:35:08;;;;;;;9.07;2.53;;;;;;;7.46;nan;101735.53;4895149;29;20494;-92
2022/03/09 04:37:38;;;;;;;6.83;2.00;;;;;;;7.50;nan;101741.53;4880918;29;20506;-92
2022/03/09 04:40:10;;;;;;;10.90;2.40;;;;;;;7.45;nan;101747.41;4880262;29;20454;-92
2022/03/09 04:42:40;;;;;;;12.20;2.70;;;;;;;7.41;nan;101735.09;4883658;29;20456;-90
2022/03/09 04:45:11;;;;;;;8.50;1.80;;;;;;;7.46;nan;101743.69;4900080;29;20505;-89
2022/03/09 04:47:39;;;;;;;11.27;3.97;;;;;;;7.43;nan;101741.25;4898465;29;20813;-91
2022/03/09 04:50:07;;;;;;;10.23;2.20;;;;;;;7.39;nan;101748.00;4868014;29;20516;-91
2022/03/09 04:52:36;;;;;;;6.20;1.80;;;;;;;7.48;nan;101748.97;4867970;29;20438;-89
2022/03/09 04:55:05;;;;;;;12.93;2.03;;;;;;;7.47;nan;101759.00;4882986;29;21035;-89
2022/03/09 04:57:36;;;;;;;7.20;2.37;;;;;;;7.43;nan;101748.56;4866275;29;20468;-89
2022/03/09 05:00:07;;;;;;;9.43;2.87;;;;;;;7.31;nan;101736.16;4873971;29;20456;-89
2022/03/09 05:02:35;;;;;;;6.77;2.63;;;;;;;7.38;nan;101757.16;4868174;29;20453;-90
2022/03/09 05:05:08;;;;;;;6.47;2.40;;;;;;;7.36;nan;101756.44;4868245;29;20509;-91
2022/03/09 05:07:40;;;;;;;12.07;2.57;;;;;;;7.22;nan;101754.19;4882970;29;20465;-89
2022/03/09 05:10:09;;;;;;;7.43;2.30;;;;;;;7.18;nan;101741.91;4868283;29;20445;-91
2022/03/09 05:12:37;;;;;;;5.73;2.13;;;;;;;7.22;nan;101755.06;4882756;29;20453;-89
2022/03/09 05:15:05;;;;;;;4.90;2.27;;;;;;;7.20;nan;101757.06;4883708;29;20511;-91
2022/03/09 05:17:39;;;;;;;12.13;5.83;;;;;;;7.22;nan;101759.63;4882366;29;20933;-92
2022/03/09 05:20:08;;;;;;;13.27;6.17;;;;;;;7.14;nan;101740.47;4879227;29;21046;-89
2022/03/09 05:22:39;;;;;;;10.50;2.80;;;;;;;7.28;nan;101753.63;4881562;29;20446;-92
2022/03/09 05:25:07;;;;;;;6.90;2.40;;;;;;;7.27;nan;101762.78;4898004;29;20467;-92
2022/03/09 05:27:38;;;;;;;8.73;2.33;;;;;;;7.20;nan;101756.22;4883199;29;20460;-89
2022/03/09 05:30:09;;;;;;;7.40;1.93;;;;;;;7.15;nan;101753.91;4878222;29;21025;-89
2022/03/09 05:32:41;;;;;;;9.87;1.83;;;;;;;7.12;nan;101747.94;4865039;29;20934;-92
2022/03/09 05:35:09;;;;;;;11.90;2.80;;;;;;;7.10;nan;101744.50;4879387;29;20997;-91
2022/03/09 05:37:41;;;;;;;12.70;2.27;;;;;;;7.08;nan;101758.25;4880142;29;20462;-91
2022/03/09 05:40:09;;;;;;;12.83;3.07;;;;;;;7.08;nan;101751.97;4879543;29;20454;-89
2022/03/09 05:42:41;;;;;;;6.40;2.10;;;;;;;7.14;nan;101762.22;4826967;29;20466;-89
2022/03/09 05:45:11;;;;;;;8.53;2.03;;;;;;;7.13;nan;101765.94;4841777;29;20456;-91
2022/03/09 05:47:48;;;;;;;5.13;2.00;;;;;;;6.96;nan;101736.81;4841892;29;20474;-91
2022/03/09 05:50:17;;;;;;;8.07;2.53;;;;;;;6.96;nan;101743.09;4829131;29;20459;-92
2022/03/09 05:52:47;;;;;;;9.50;2.00;;;;;;;7.01;nan;101758.97;4844072;29;20455;-88
2022/03/09 05:55:17;;;;;;;7.13;2.80;;;;;;;6.96;nan;101762.13;4843928;29;21005;-90
2022/03/09 05:57:47;;;;;;;11.93;2.80;;;;;;;6.92;nan;101763.44;4808599;29;20975;-88
2022/03/09 06:00:15;;;;;;;5.67;1.83;;;;;;;6.86;nan;101758.56;4793179;29;20464;-90
2022/03/09 06:02:47;;;;;;;6.80;1.70;;;;;;;6.80;nan;101762.72;4811749;29;20971;-89
2022/03/09 06:05:19;;;;;;;6.67;2.10;;;;;;;6.85;nan;101771.28;4791070;29;20465;-89
2022/03/09 06:07:50;;;;;;;7.27;2.43;;;;;;;6.74;nan;101765.13;4793340;29;20462;-89
2022/03/09 06:10:18;;;;;;;4.20;1.60;;;;;;;6.66;nan;101779.47;4781404;29;20458;-92
2022/03/09 06:12:49;;;;;;;6.23;1.80;;;;;;;6.65;nan;101777.75;4779668;29;20484;-91
2022/03/09 06:15:19;;;;;;;12.23;2.77;;;;;;;6.66;nan;101778.59;4800970;29;21051;-89
2022/03/09 06:17:50;;;;;;;6.73;2.60;;;;;;;6.66;nan;101778.59;4814672;29;20455;-90
2022/03/09 06:20:20;;;;;;;6.20;2.27;;;;;;;6.69;nan;101784.59;4792509;29;20845;-89
2022/03/09 06:22:52;;;;;;;8.20;2.20;;;;;;;6.66;nan;101790.31;4798681;29;20483;-89
2022/03/09 06:25:20;;;;;;;8.23;2.63;;;;;;;6.59;nan;101783.72;4795558;29;20523;-89
2022/03/09 06:27:50;;;;;;;14.10;2.20;;;;;;;6.59;nan;101794.59;4810689;29;20468;-89
2022/03/09 06:30:23;;;;;;;6.70;2.47;;;;;;;6.69;nan;101805.47;4813897;29;20856;-90
2022/03/09 06:32:51;;;;;;;10.63;2.40;;;;;;;6.65;nan;101804.03;4809854;29;20527;-90
2022/03/09 06:35:19;;;;;;;7.73;2.40;;;;;;;6.65;nan;101815.75;4794858;29;20462;-92
2022/03/09 06:37:46;;;;;;;7.40;2.30;;;;;;;6.61;nan;101811.59;4822823;29;20461;-89
2022/03/09 06:40:14;;;;;;;8.37;2.67;;;;;;;6.47;nan;101785.75;4882144;29;20449;-89
2022/03/09 06:42:42;;;;;;;5.83;2.50;;;;;;;6.55;nan;101806.72;4881296;29;20527;-88
2022/03/09 06:45:09;;;;;;;5.90;2.43;;;;;;;6.54;nan;101818.63;4881794;29;20458;-89
2022/03/09 06:47:38;;;;;;;6.10;2.03;;;;;;;6.56;nan;101814.75;4882393;29;20940;-92
2022/03/09 06:50:13;;;;;;;11.20;2.97;;;;;;;6.52;nan;101818.78;4881641;29;20480;-89
2022/03/09 06:52:40;;;;;;;6.30;1.93;;;;;;;6.55;nan;101814.88;4896605;29;20465;-89
2022/03/09 06:55:12;;;;;;;12.27;2.37;;;;;;;6.44;nan;101801.44;4881063;29;20464;-89
2022/03/09 06:57:41;;;;;;;8.90;2.60;;;;;;;6.50;nan;101817.19;4880720;29;20461;-89
2022/03/09 07:00:11;;;;;;;6.40;2.63;;;;;;;6.57;nan;101826.47;4862844;29;20459;-89
2022/03/09 07:02:39;;;;;;;14.70;3.60;;;;;;;6.53;nan;101819.63;4881684;29;20984;-88
2022/03/09 07:05:09;;;;;;;8.87;2.13;;;;;;;6.54;nan;101830.31;4881720;29;20441;-89
2022/03/09 07:07:38;;;;;;;7.63;2.00;;;;;;;6.56;nan;101832.91;4881429;29;20454;-90
2022/03/09 07:10:10;;;;;;;11.20;2.47;;;;;;;6.48;nan;101816.47;4866133;29;20446;-89
2022/03/09 07:12:42;;;;;;;4.63;1.77;;;;;;;6.50;nan;101823.47;4867571;29;20455;-89
2022/03/09 07:15:09;;;;;;;8.10;2.10;;;;;;;6.47;nan;101825.59;4880708;29;20820;-88
2022/03/09 07:17:39;;;;;;;15.73;2.20;;;;;;;6.40;nan;101811.72;4865871;29;20477;-89
2022/03/09 07:20:08;;;;;;;8.83;2.67;;;;;;;6.43;nan;101826.88;4847205;29;20505;-89
2022/03/09 07:22:42;;;;;;;9.60;2.67;;;;;;;6.47;nan;101831.03;4861453;29;20454;-89
2022/03/09 07:25:10;;;;;;;13.90;2.50;;;;;;;6.48;nan;101824.63;4839107;29;20477;-89
2022/03/09 07:27:39;;;;;;;7.77;2.07;;;;;;;6.54;nan;101834.91;4829903;29;20996;-89
2022/03/09 07:30:08;;;;;;;12.70;2.73;;;;;;;6.59;nan;101851.63;4846421;29;20443;-89
2022/03/09 07:32:36;;;;;;;7.67;2.10;;;;;;;6.63;nan;101849.50;4831553;29;20854;-88
2022/03/09 07:35:21;;;;;;;10.80;2.60;;;;;;;6.59;nan;101841.63;4830395;29;20454;-89
2022/03/09 07:37:52;;;;;;;7.63;3.03;;;;;;;6.71;nan;101845.09;4856425;29;20450;-88
2022/03/09 07:40:21;;;;;;;8.80;4.20;;;;;;;6.78;nan;101858.94;4883089;29;20442;-88
2022/03/09 07:42:52;;;;;;;13.40;3.20;;;;;;;6.87;nan;101858.97;4902818;29;20446;-87
2022/03/09 07:45:25;;;;;;;12.10;3.63;;;;;;;6.82;nan;101850.38;4916663;29;20441;-88
2022/03/09 07:47:53;;;;;;;11.07;4.53;;;;;;;6.97;nan;101855.38;4910866;29;20477;-89
2022/03/09 07:50:22;;;;;;;10.43;3.10;;;;;;;7.00;nan;101857.81;4877723;29;20477;-88
2022/03/09 07:53:00;;;;;;;16.50;6.30;;;;;;;7.09;nan;101862.41;4898356;29;20445;-88
2022/03/09 07:55:28;;;;;;;15.77;7.33;;;;;;;7.15;nan;101867.25;4897878;29;20449;-88
2022/03/09 07:57:56;;;;;;;13.70;5.93;;;;;;;7.16;nan;101855.38;4880828;29;20462;-87
2022/03/09 08:00:24;;;;;;;12.27;4.80;;;;;;;7.35;nan;101874.38;4882578;29;20948;-88
2022/03/09 08:02:52;;;;;;;15.47;3.87;;;;;;;7.49;nan;101876.66;4864208;29;20825;-87
2022/03/09 08:05:37;;;;;;;14.70;3.60;;;;;;;7.60;nan;101859.31;4885261;29;20450;-88
2022/03/09 08:08:06;;;;;;;18.33;4.07;;;;;;;7.74;nan;101871.56;4864434;29;20510;-89
2022/03/09 08:10:34;;;;;;;12.07;3.87;;;;;;;7.76;nan;101855.97;4844414;29;20856;-88
2022/03/09 08:13:04;;;;;;;16.40;7.80;;;;;;;7.79;nan;101844.78;4857718;29;20463;-89
2022/03/09 08:15:34;;;;;;;19.50;6.70;;;;;;;7.95;nan;101855.88;4855064;29;20468;-87
2022/03/09 08:18:05;;;;;;;11.03;5.00;;;;;;;8.10;nan;101856.25;4845519;29;20455;-87
2022/03/09 08:20:32;;;;;;;18.10;4.17;;;;;;;8.20;nan;101851.63;4845210;29;20515;-87
2022/03/09 08:23:01;;;;;;;27.73;6.60;;;;;;;8.37;nan;101860.88;4845559;29;20456;-87
2022/03/09 08:25:28;;;;;;;19.37;5.40;;;;;;;8.50;nan;101855.91;4829499;29;20479;-86
2022/03/09 08:27:57;;;;;;;14.10;5.40;;;;;;;8.59;nan;101861.31;4835572;29;20457;-87
2022/03/09 08:30:26;;;;;;;12.13;4.40;;;;;;;8.70;nan;101852.06;4897639;29;20525;-87
2022/03/09 08:32:54;;;;;;;12.43;5.40;;;;;;;8.83;nan;101857.13;4887558;29;20453;-87
2022/03/09 08:35:26;;;;;;;21.93;5.57;;;;;;;8.94;nan;101851.44;4883413;29;20928;-87
2022/03/09 08:37:54;;;;;;;14.80;5.17;;;;;;;9.01;nan;101858.00;4866091;29;20484;-87
2022/03/09 08:40:21;;;;;;;26.70;6.43;;;;;;;9.14;nan;101860.31;4882141;29;20948;-85
2022/03/09 08:42:49;;;;;;;17.93;5.10;;;;;;;9.24;nan;101844.69;4867846;29;20469;-85
2022/03/09 08:45:18;;;;;;;20.67;5.70;;;;;;;9.44;nan;101856.28;4868072;29;20453;-85
2022/03/09 08:47:46;;;;;;;14.10;5.10;;;;;;;9.59;nan;101858.28;4898160;29;20476;-85
2022/03/09 08:50:16;;;;;;;16.13;5.03;;;;;;;9.73;nan;101854.13;4882305;29;20461;-86
2022/03/09 08:52:58;;;;;;;23.03;4.77;;;;;;;9.81;nan;101842.41;4884932;29;20868;-87
2022/03/09 08:55:30;;;;;;;11.70;4.33;;;;;;;10.09;nan;101856.69;4882417;29;20450;-89
2022/03/09 08:57:58;;;;;;;18.57;4.47;;;;;;;10.24;nan;101844.16;4913800;29;20481;-89
2022/03/09 09:00:33;;;;;;;15.87;3.70;;;;;;;10.49;nan;101858.78;4869038;29;20454;-88
2022/03/09 09:03:02;;;;;;;11.47;4.00;;;;;;;10.67;nan;101863.09;4882334;29;20484;-89
2022/03/09 09:05:30;;;;;;;19.83;4.20;;;;;;;10.90;nan;101868.78;4882226;29;20461;-88
2022/03/09 09:08:00;;;;;;;12.60;3.20;;;;;;;11.11;nan;101864.72;4882729;29;20454;-87
2022/03/09 09:10:35;;;;;;;16.30;4.97;;;;;;;11.30;nan;101859.75;4882504;29;20454;-88
2022/03/09 09:13:05;;;;;;;17.70;4.30;;;;;;;11.47;nan;101863.34;4913324;29;20458;-88
2022/03/09 09:15:34;;;;;;;15.33;3.10;;;;;;;11.65;nan;101864.00;4881009;29;20956;-88
2022/03/09 09:18:02;;;;;;;16.23;3.43;;;;;;;11.87;nan;101864.34;4897476;29;20996;-83
2022/03/09 09:20:45;;;;;;;21.40;4.77;;;;;;;12.11;nan;101847.84;4898182;29;20453;-89
2022/03/09 09:23:13;;;;;;;32.07;5.03;;;;;;;12.29;nan;101845.69;4897821;29;20961;-89
2022/03/09 09:25:44;;;;;;;31.00;5.50;;;;;;;12.48;nan;101858.13;4880238;29;20536;-88
2022/03/09 09:28:13;;;;;;;27.13;7.47;;;;;;;12.58;nan;101841.44;4867136;29;20454;-88
2022/03/09 09:30:42;;;;;;;25.00;6.00;;;;;;;12.71;nan;101825.22;4864632;29;20462;-88
2022/03/09 09:33:11;;;;;;;26.27;6.60;;;;;;;12.98;nan;101846.66;4896909;29;20462;-88
2022/03/09 09:35:40;;;;;;;16.57;5.30;;;;;;;13.02;nan;101830.69;4862755;29;20454;-88
2022/03/09 09:38:09;;;;;;;26.27;5.00;;;;;;;13.22;nan;101837.41;4878640;29;20478;-88
2022/03/09 09:40:41;;;;;;;23.77;7.10;;;;;;;13.40;nan;101828.84;4863467;29;20454;-88
2022/03/09 09:43:34;;;;;;;15.00;4.23;;;;;;;13.57;nan;101835.88;4878634;29;20458;-89
2022/03/09 09:46:02;;;;;;;23.37;5.23;;;;;;;13.71;nan;101829.56;4893881;29;20832;-89
2022/03/09 09:48:30;;;;;;;24.27;6.53;;;;;;;13.86;nan;101834.19;4896279;29;20461;-89
2022/03/09 09:50:59;;;;;;;20.20;4.90;;;;;;;14.00;nan;101836.13;4898100;29;20504;-89
2022/03/09 09:53:27;;;;;;;15.07;3.57;;;;;;;14.14;nan;101830.63;4866025;29;20462;-88
2022/03/09 09:55:58;;;;;;;11.03;2.53;;;;;;;14.24;nan;101821.25;4881638;29;20976;-88
2022/03/09 09:58:28;;;;;;;34.30;4.13;;;;;;;14.41;nan;101829.09;4866790;29;20449;-89
2022/03/09 10:00:56;;;;;;;18.10;2.10;;;;;;;14.59;nan;101836.09;4867011;29;20521;-89
2022/03/09 10:03:25;;;;;;;11.10;2.33;;;;;;;14.74;nan;101840.50;4866085;29;20453;-89
2022/03/09 10:05:55;;;;;;;12.97;3.57;;;;;;;14.88;nan;101830.47;4829376;29;20455;-89
2022/03/09 10:08:24;;;;;;;21.63;4.73;;;;;;;15.08;nan;101836.19;4813969;29;20838;-88
2022/03/09 10:10:56;;;;;;;19.60;4.37;;;;;;;15.22;nan;101829.75;4843446;29;20459;-89
2022/03/09 10:13:31;;;;;;;18.40;3.90;;;;;;;15.32;nan;101821.16;4827969;29;20455;-89
2022/03/09 10:16:20;;;;;;;21.40;2.93;;;;;;;15.45;nan;101826.78;4813780;29;20471;-90
2022/03/09 10:18:56;;;;;;;18.43;5.07;;;;;;;15.52;nan;101817.53;4827599;29;20534;-90
2022/03/09 10:21:29;;;;;;;18.83;3.53;;;;;;;15.68;nan;101819.16;4811547;29;20460;-90
2022/03/09 10:24:01;;;;;;;16.23;4.03;;;;;;;15.75;nan;101814.56;4819894;29;20443;-90
2022/03/09 10:26:42;;;;;;;13.07;3.03;;;;;;;15.84;nan;101810.56;4828517;29;20455;-91
2022/03/09 10:29:14;;;;;;;16.23;3.90;;;;;;;15.91;nan;101818.88;4822358;29;20472;-90
2022/03/09 10:31:48;;;;;;;17.77;2.90;;;;;;;15.99;nan;101823.38;4843849;29;20460;-91
2022/03/09 10:34:23;;;;;;;12.47;2.43;;;;;;;16.05;nan;101806.03;4847292;29;20957;-91
2022/03/09 10:37:05;;;;;;;16.17;2.37;;;;;;;16.21;nan;101817.56;4808049;29;20571;-90
2022/03/09 10:39:34;;;;;;;17.90;3.40;;;;;;;16.31;nan;101821.88;4806046;29;20500;-91
2022/03/09 10:42:06;;;;;;;13.20;2.60;;;;;;;16.41;nan;101812.13;4822708;29;20941;-92
2022/03/09 10:44:48;;;;;;;17.57;3.30;;;;;;;16.59;nan;101820.69;4804453;29;20457;-88
2022/03/09 10:47:32;;;;;;;14.13;2.43;;;;;;;16.72;nan;101808.88;4820872;29;20971;-90
2022/03/09 10:50:09;;;;;;;16.27;2.83;;;;;;;16.87;nan;101822.50;4818550;29;20545;-91
2022/03/09 10:52:48;;;;;;;10.90;3.40;;;;;;;17.03;nan;101816.59;4821793;29;20445;-89
2022/03/09 10:55:23;;;;;;;12.00;2.07;;;;;;;17.22;nan;101824.06;4863718;29;20431;-91
2022/03/09 10:58:06;;;;;;;8.50;2.07;;;;;;;17.38;nan;101816.41;4872254;29;20481;-91
2022/03/09 11:00:43;;;;;;;14.70;2.70;;;;;;;17.50;nan;101825.78;4863680;29;20450;-90
2022/03/09 11:03:22;;;;;;;12.53;3.17;;;;;;;17.55;nan;101825.97;4878652;29;20458;-92
2022/03/09 11:05:56;;;;;;;7.07;2.23;;;;;;;17.64;nan;101830.25;4865774;29;20462;-91
2022/03/09 11:08:26;;;;;;;16.40;3.20;;;;;;;17.75;nan;101821.28;4872698;29;20435;-90
2022/03/09 11:11:00;;;;;;;15.43;2.20;;;;;;;17.83;nan;101821.09;4866732;29;20461;-89
2022/03/09 11:13:49;;;;;;;10.17;2.33;;;;;;;18.05;nan;101823.59;4881553;29;20450;-94
2022/03/09 11:16:19;;;;;;;18.60;2.50;;;;;;;18.26;nan;101826.09;4867177;29;20458;-89
2022/03/09 11:18:47;;;;;;;16.10;2.40;;;;;;;18.49;nan;101818.09;4866277;29;20458;-90
2022/03/09 11:21:19;;;;;;;6.53;2.00;;;;;;;18.72;nan;101828.66;4843924;29;20458;-90
2022/03/09 11:23:47;;;;;;;10.50;2.50;;;;;;;18.90;nan;101819.63;4862711;29;20470;-91
2022/03/09 11:26:28;;;;;;;14.63;2.80;;;;;;;19.07;nan;101828.25;4875474;29;20469;-90
2022/03/09 11:29:07;;;;;;;15.67;2.07;;;;;;;19.20;nan;101834.56;4866765;29;20460;-91
2022/03/09 11:31:49;;;;;;;11.63;2.00;;;;;;;19.30;nan;101815.50;4877145;29;20940;-91
2022/03/09 11:35:06;;;;;;;9.30;1.87;;;;;;;19.43;nan;101825.66;4865536;29;20480;-93
2022/03/09 11:37:39;;;;;;;12.07;2.60;;;;;;;19.59;nan;101813.16;4891355;29;20500;-91
2022/03/09 11:40:08;;;;;;;13.07;2.17;;;;;;;19.77;nan;101827.06;4863004;29;20470;-90
2022/03/09 11:42:39;;;;;;;8.67;2.70;;;;;;;19.86;nan;101828.47;4881704;29;20442;-90
2022/03/09 11:45:22;;;;;;;9.03;1.70;;;;;;;19.91;nan;101823.06;4829167;29;20452;-90
2022/03/09 11:48:09;;;;;;;8.40;1.47;;;;;;;19.81;nan;101821.91;4837460;29;20879;-92
2022/03/09 11:50:46;;;;;;;6.10;1.67;;;;;;;19.77;nan;101827.06;4832575;29;20451;-91
2022/03/09 11:53:46;;;;;;;8.60;1.70;;;;;;;19.88;nan;101825.47;4845585;29;20467;-91
2022/03/09 11:56:41;;;;;;;7.50;1.67;;;;;;;20.08;nan;101825.25;4832769;29;20445;-90
2022/03/09 11:59:14;;;;;;;6.50;1.50;;;;;;;20.28;nan;101812.00;4835275;29;20443;-90
2022/03/09 12:02:04;;;;;;;6.33;1.20;;;;;;;20.38;nan;101815.13;4821189;29;20943;-91
2022/03/09 12:04:51;;;;;;;5.30;1.70;;;;;;;20.34;nan;101816.63;4899854;29;20454;-89